sensor_id;sensor_type;location;lat;lon;timestamp;P1;durP1;ratioP1;P2;durP2;ratioP2
31284;SDS011;56605;51.516;6.742;2022-08-19T00:02:14;8.32;;;5.05;;
31284;SDS011;56605;51.516;6.742;2022-08-19T00:04:39;10.93;;;5.40;;
31284;SDS011;56605;51.516;6.742;2022-08-19T00:07:05;5.90;;;4.90;;
31284;SDS011;56605;51.516;6.742;2022-08-19T00:09:31;17.20;;;5.95;;
31284;SDS011;56605;51.516;6.742;2022-08-19T00:11:56;6.25;;;4.88;;
31284;SDS011;56605;51.516;6.742;2022-08-19T00:14:23;7.85;;;6.30;;
31284;SDS011;56605;51.516;6.742;2022-08-19T00:16:49;6.38;;;5.25;;
31284;SDS011;56605;51.516;6.742;2022-08-19T00:19:19;7.20;;;5.75;;
31284;SDS011;56605;51.516;6.742;2022-08-19T00:21:45;8.05;;;6.05;;
31284;SDS011;56605;51.516;6.742;2022-08-19T00:24:11;7.82;;;5.75;;
31284;SDS011;56605;51.516;6.742;2022-08-19T00:26:38;8.23;;;5.38;;
31284;SDS011;56605;51.516;6.742;2022-08-19T00:29:06;7.88;;;5.85;;
31284;SDS011;56605;51.516;6.742;2022-08-19T00:31:32;9.45;;;6.38;;
31284;SDS011;56605;51.516;6.742;2022-08-19T00:33:58;6.80;;;5.20;;
31284;SDS011;56605;51.516;6.742;2022-08-19T00:36:24;7.93;;;6.05;;
31284;SDS011;56605;51.516;6.742;2022-08-19T00:38:49;12.48;;;6.07;;
31284;SDS011;56605;51.516;6.742;2022-08-19T00:41:17;8.73;;;5.85;;
31284;SDS011;56605;51.516;6.742;2022-08-19T00:43:56;6.53;;;5.45;;
31284;SDS011;56605;51.516;6.742;2022-08-19T00:46:33;7.78;;;5.72;;
31284;SDS011;56605;51.516;6.742;2022-08-19T00:49:06;8.65;;;5.97;;
31284;SDS011;56605;51.516;6.742;2022-08-19T00:51:45;8.65;;;5.85;;
31284;SDS011;56605;51.516;6.742;2022-08-19T00:54:13;10.88;;;5.43;;
31284;SDS011;56605;51.516;6.742;2022-08-19T00:56:39;8.68;;;5.82;;
31284;SDS011;56605;51.516;6.742;2022-08-19T00:59:05;7.63;;;6.28;;
31284;SDS011;56605;51.516;6.742;2022-08-19T01:01:34;7.63;;;6.18;;
31284;SDS011;56605;51.516;6.742;2022-08-19T01:04:00;6.45;;;5.32;;
31284;SDS011;56605;51.516;6.742;2022-08-19T01:06:26;10.63;;;5.68;;
31284;SDS011;56605;51.516;6.742;2022-08-19T01:08:51;8.05;;;5.90;;
31284;SDS011;56605;51.516;6.742;2022-08-19T01:11:17;9.73;;;5.90;;
31284;SDS011;56605;51.516;6.742;2022-08-19T01:13:42;7.90;;;6.00;;
31284;SDS011;56605;51.516;6.742;2022-08-19T01:16:08;7.70;;;5.38;;
31284;SDS011;56605;51.516;6.742;2022-08-19T01:18:36;8.23;;;6.32;;
31284;SDS011;56605;51.516;6.742;2022-08-19T01:21:07;12.40;;;6.57;;
31284;SDS011;56605;51.516;6.742;2022-08-19T01:23:40;8.10;;;6.40;;
31284;SDS011;56605;51.516;6.742;2022-08-19T01:26:10;8.55;;;6.47;;
31284;SDS011;56605;51.516;6.742;2022-08-19T01:28:38;8.82;;;6.15;;
31284;SDS011;56605;51.516;6.742;2022-08-19T01:31:04;9.15;;;6.90;;
31284;SDS011;56605;51.516;6.742;2022-08-19T01:33:32;8.38;;;6.22;;
31284;SDS011;56605;51.516;6.742;2022-08-19T01:36:08;8.50;;;6.78;;
31284;SDS011;56605;51.516;6.742;2022-08-19T01:38:40;7.75;;;6.45;;
31284;SDS011;56605;51.516;6.742;2022-08-19T01:41:07;9.18;;;6.68;;
31284;SDS011;56605;51.516;6.742;2022-08-19T01:43:34;9.88;;;6.88;;
31284;SDS011;56605;51.516;6.742;2022-08-19T01:45:59;8.00;;;6.18;;
31284;SDS011;56605;51.516;6.742;2022-08-19T01:48:25;9.90;;;6.78;;
31284;SDS011;56605;51.516;6.742;2022-08-19T01:50:51;10.25;;;7.07;;
31284;SDS011;56605;51.516;6.742;2022-08-19T01:53:16;9.05;;;6.63;;
31284;SDS011;56605;51.516;6.742;2022-08-19T01:55:42;9.52;;;6.97;;
31284;SDS011;56605;51.516;6.742;2022-08-19T01:58:10;10.90;;;6.57;;
31284;SDS011;56605;51.516;6.742;2022-08-19T02:00:39;12.10;;;6.50;;
31284;SDS011;56605;51.516;6.742;2022-08-19T02:03:05;8.30;;;7.07;;
31284;SDS011;56605;51.516;6.742;2022-08-19T02:05:31;8.43;;;6.20;;
31284;SDS011;56605;51.516;6.742;2022-08-19T02:07:57;11.30;;;6.72;;
31284;SDS011;56605;51.516;6.742;2022-08-19T02:10:23;10.55;;;7.22;;
31284;SDS011;56605;51.516;6.742;2022-08-19T02:12:49;9.52;;;7.30;;
31284;SDS011;56605;51.516;6.742;2022-08-19T02:15:15;9.13;;;6.68;;
31284;SDS011;56605;51.516;6.742;2022-08-19T02:17:43;9.63;;;7.07;;
31284;SDS011;56605;51.516;6.742;2022-08-19T02:20:09;9.13;;;7.28;;
31284;SDS011;56605;51.516;6.742;2022-08-19T02:22:35;10.35;;;6.75;;
31284;SDS011;56605;51.516;6.742;2022-08-19T02:25:00;10.40;;;6.30;;
31284;SDS011;56605;51.516;6.742;2022-08-19T02:27:26;7.28;;;5.88;;
31284;SDS011;56605;51.516;6.742;2022-08-19T02:29:52;6.60;;;5.47;;
31284;SDS011;56605;51.516;6.742;2022-08-19T02:32:18;7.03;;;5.60;;
31284;SDS011;56605;51.516;6.742;2022-08-19T02:34:45;7.85;;;6.43;;
31284;SDS011;56605;51.516;6.742;2022-08-19T02:37:11;7.32;;;5.68;;
31284;SDS011;56605;51.516;6.742;2022-08-19T02:39:57;6.40;;;5.70;;
31284;SDS011;56605;51.516;6.742;2022-08-19T02:42:23;10.10;;;6.63;;
31284;SDS011;56605;51.516;6.742;2022-08-19T02:44:48;8.10;;;5.78;;
31284;SDS011;56605;51.516;6.742;2022-08-19T02:47:14;10.43;;;6.85;;
31284;SDS011;56605;51.516;6.742;2022-08-19T02:49:40;11.90;;;6.97;;
31284;SDS011;56605;51.516;6.742;2022-08-19T02:52:05;9.60;;;6.45;;
31284;SDS011;56605;51.516;6.742;2022-08-19T02:54:31;7.55;;;6.45;;
31284;SDS011;56605;51.516;6.742;2022-08-19T02:56:56;8.57;;;6.38;;
31284;SDS011;56605;51.516;6.742;2022-08-19T02:59:22;9.70;;;6.32;;
31284;SDS011;56605;51.516;6.742;2022-08-19T03:01:47;10.63;;;6.07;;
31284;SDS011;56605;51.516;6.742;2022-08-19T03:04:13;9.57;;;6.47;;
31284;SDS011;56605;51.516;6.742;2022-08-19T03:06:41;7.60;;;6.03;;
31284;SDS011;56605;51.516;6.742;2022-08-19T03:09:10;7.78;;;6.00;;
31284;SDS011;56605;51.516;6.742;2022-08-19T03:11:36;9.15;;;6.18;;
31284;SDS011;56605;51.516;6.742;2022-08-19T03:14:03;13.93;;;6.90;;
31284;SDS011;56605;51.516;6.742;2022-08-19T03:16:30;7.53;;;5.88;;
31284;SDS011;56605;51.516;6.742;2022-08-19T03:19:00;9.95;;;6.22;;
31284;SDS011;56605;51.516;6.742;2022-08-19T03:21:26;10.43;;;6.43;;
31284;SDS011;56605;51.516;6.742;2022-08-19T03:23:54;10.82;;;5.97;;
31284;SDS011;56605;51.516;6.742;2022-08-19T03:26:24;8.07;;;6.47;;
31284;SDS011;56605;51.516;6.742;2022-08-19T03:28:50;8.30;;;6.32;;
31284;SDS011;56605;51.516;6.742;2022-08-19T03:31:16;10.15;;;6.82;;
31284;SDS011;56605;51.516;6.742;2022-08-19T03:33:44;9.02;;;5.88;;
31284;SDS011;56605;51.516;6.742;2022-08-19T03:36:14;10.63;;;6.50;;
31284;SDS011;56605;51.516;6.742;2022-08-19T03:38:43;9.52;;;6.40;;
31284;SDS011;56605;51.516;6.742;2022-08-19T03:41:12;7.95;;;6.22;;
31284;SDS011;56605;51.516;6.742;2022-08-19T03:43:40;9.63;;;5.93;;
31284;SDS011;56605;51.516;6.742;2022-08-19T03:46:10;14.70;;;7.35;;
31284;SDS011;56605;51.516;6.742;2022-08-19T03:48:38;10.10;;;6.15;;
31284;SDS011;56605;51.516;6.742;2022-08-19T03:51:05;12.43;;;7.10;;
31284;SDS011;56605;51.516;6.742;2022-08-19T03:53:33;11.05;;;7.85;;
31284;SDS011;56605;51.516;6.742;2022-08-19T03:55:59;11.95;;;8.55;;
31284;SDS011;56605;51.516;6.742;2022-08-19T03:58:26;13.25;;;7.78;;
31284;SDS011;56605;51.516;6.742;2022-08-19T04:00:55;15.73;;;8.05;;
31284;SDS011;56605;51.516;6.742;2022-08-19T04:03:21;13.05;;;8.43;;
31284;SDS011;56605;51.516;6.742;2022-08-19T04:05:47;11.55;;;8.35;;
31284;SDS011;56605;51.516;6.742;2022-08-19T04:08:14;11.40;;;7.95;;
31284;SDS011;56605;51.516;6.742;2022-08-19T04:10:46;15.18;;;6.93;;
31284;SDS011;56605;51.516;6.742;2022-08-19T04:13:12;9.52;;;7.68;;
31284;SDS011;56605;51.516;6.742;2022-08-19T04:15:39;14.27;;;7.50;;
31284;SDS011;56605;51.516;6.742;2022-08-19T04:18:07;11.35;;;7.68;;
31284;SDS011;56605;51.516;6.742;2022-08-19T04:20:43;11.23;;;7.80;;
31284;SDS011;56605;51.516;6.742;2022-08-19T04:23:11;9.25;;;7.78;;
31284;SDS011;56605;51.516;6.742;2022-08-19T04:25:41;12.85;;;8.45;;
31284;SDS011;56605;51.516;6.742;2022-08-19T04:28:08;11.13;;;8.82;;
31284;SDS011;56605;51.516;6.742;2022-08-19T04:30:42;13.40;;;7.80;;
31284;SDS011;56605;51.516;6.742;2022-08-19T04:33:10;11.32;;;7.75;;
31284;SDS011;56605;51.516;6.742;2022-08-19T04:35:38;11.30;;;8.18;;
31284;SDS011;56605;51.516;6.742;2022-08-19T04:38:05;9.55;;;7.40;;
31284;SDS011;56605;51.516;6.742;2022-08-19T04:40:31;12.90;;;6.78;;
31284;SDS011;56605;51.516;6.742;2022-08-19T04:43:15;9.60;;;7.38;;
31284;SDS011;56605;51.516;6.742;2022-08-19T04:45:42;11.38;;;8.73;;
31284;SDS011;56605;51.516;6.742;2022-08-19T04:48:08;13.00;;;9.48;;
31284;SDS011;56605;51.516;6.742;2022-08-19T04:50:34;11.60;;;8.15;;
31284;SDS011;56605;51.516;6.742;2022-08-19T04:53:00;17.08;;;10.18;;
31284;SDS011;56605;51.516;6.742;2022-08-19T04:55:25;14.57;;;10.05;;
31284;SDS011;56605;51.516;6.742;2022-08-19T04:57:51;15.57;;;11.23;;
31284;SDS011;56605;51.516;6.742;2022-08-19T05:00:16;12.85;;;9.27;;
31284;SDS011;56605;51.516;6.742;2022-08-19T05:02:41;16.50;;;11.65;;
31284;SDS011;56605;51.516;6.742;2022-08-19T05:05:07;18.75;;;11.95;;
31284;SDS011;56605;51.516;6.742;2022-08-19T05:07:32;21.67;;;14.43;;
31284;SDS011;56605;51.516;6.742;2022-08-19T05:09:58;24.55;;;15.00;;
31284;SDS011;56605;51.516;6.742;2022-08-19T05:12:23;27.90;;;16.10;;
31284;SDS011;56605;51.516;6.742;2022-08-19T05:14:49;24.20;;;15.63;;
31284;SDS011;56605;51.516;6.742;2022-08-19T05:17:15;27.60;;;17.85;;
31284;SDS011;56605;51.516;6.742;2022-08-19T05:19:40;27.17;;;17.00;;
31284;SDS011;56605;51.516;6.742;2022-08-19T05:22:24;31.23;;;18.55;;
31284;SDS011;56605;51.516;6.742;2022-08-19T05:25:07;34.15;;;19.98;;
31284;SDS011;56605;51.516;6.742;2022-08-19T05:27:35;36.88;;;21.17;;
31284;SDS011;56605;51.516;6.742;2022-08-19T05:30:00;31.90;;;20.27;;
31284;SDS011;56605;51.516;6.742;2022-08-19T05:32:26;37.25;;;21.30;;
31284;SDS011;56605;51.516;6.742;2022-08-19T05:34:52;40.53;;;23.08;;
31284;SDS011;56605;51.516;6.742;2022-08-19T05:37:18;40.33;;;23.23;;
31284;SDS011;56605;51.516;6.742;2022-08-19T05:39:44;44.58;;;23.88;;
31284;SDS011;56605;51.516;6.742;2022-08-19T05:42:10;40.58;;;24.27;;
31284;SDS011;56605;51.516;6.742;2022-08-19T05:44:37;48.80;;;27.50;;
31284;SDS011;56605;51.516;6.742;2022-08-19T05:47:05;47.25;;;27.83;;
31284;SDS011;56605;51.516;6.742;2022-08-19T05:49:32;48.75;;;27.65;;
31284;SDS011;56605;51.516;6.742;2022-08-19T05:51:58;47.80;;;28.65;;
31284;SDS011;56605;51.516;6.742;2022-08-19T05:54:26;45.75;;;26.98;;
31284;SDS011;56605;51.516;6.742;2022-08-19T05:56:52;49.22;;;25.60;;
31284;SDS011;56605;51.516;6.742;2022-08-19T05:59:19;55.53;;;27.30;;
31284;SDS011;56605;51.516;6.742;2022-08-19T06:01:47;49.38;;;26.45;;
31284;SDS011;56605;51.516;6.742;2022-08-19T06:04:17;49.88;;;27.33;;
31284;SDS011;56605;51.516;6.742;2022-08-19T06:06:44;50.28;;;28.27;;
31284;SDS011;56605;51.516;6.742;2022-08-19T06:09:11;45.17;;;26.92;;
31284;SDS011;56605;51.516;6.742;2022-08-19T06:11:38;49.17;;;27.55;;
31284;SDS011;56605;51.516;6.742;2022-08-19T06:14:10;44.67;;;25.58;;
31284;SDS011;56605;51.516;6.742;2022-08-19T06:16:47;46.58;;;27.60;;
31284;SDS011;56605;51.516;6.742;2022-08-19T06:19:15;49.15;;;27.75;;
31284;SDS011;56605;51.516;6.742;2022-08-19T06:21:43;43.60;;;25.15;;
31284;SDS011;56605;51.516;6.742;2022-08-19T06:24:12;37.10;;;23.50;;
31284;SDS011;56605;51.516;6.742;2022-08-19T06:26:39;42.17;;;24.60;;
31284;SDS011;56605;51.516;6.742;2022-08-19T06:29:07;45.58;;;24.55;;
31284;SDS011;56605;51.516;6.742;2022-08-19T06:31:34;48.83;;;24.20;;
31284;SDS011;56605;51.516;6.742;2022-08-19T06:34:00;41.42;;;24.55;;
31284;SDS011;56605;51.516;6.742;2022-08-19T06:36:32;39.78;;;24.08;;
31284;SDS011;56605;51.516;6.742;2022-08-19T06:39:01;39.63;;;24.83;;
31284;SDS011;56605;51.516;6.742;2022-08-19T06:41:34;33.42;;;22.90;;
31284;SDS011;56605;51.516;6.742;2022-08-19T06:44:01;37.65;;;22.85;;
31284;SDS011;56605;51.516;6.742;2022-08-19T06:46:26;34.30;;;21.45;;
31284;SDS011;56605;51.516;6.742;2022-08-19T06:48:55;37.90;;;23.05;;
31284;SDS011;56605;51.516;6.742;2022-08-19T06:51:21;39.60;;;22.50;;
31284;SDS011;56605;51.516;6.742;2022-08-19T06:53:47;39.25;;;24.73;;
31284;SDS011;56605;51.516;6.742;2022-08-19T06:56:18;43.08;;;25.27;;
31284;SDS011;56605;51.516;6.742;2022-08-19T06:58:45;40.55;;;25.20;;
31284;SDS011;56605;51.516;6.742;2022-08-19T07:01:11;39.55;;;25.65;;
31284;SDS011;56605;51.516;6.742;2022-08-19T07:03:38;38.72;;;25.23;;
31284;SDS011;56605;51.516;6.742;2022-08-19T07:06:08;43.75;;;26.13;;
31284;SDS011;56605;51.516;6.742;2022-08-19T07:08:36;40.80;;;24.35;;
31284;SDS011;56605;51.516;6.742;2022-08-19T07:11:06;37.85;;;23.85;;
31284;SDS011;56605;51.516;6.742;2022-08-19T07:13:33;37.22;;;23.73;;
31284;SDS011;56605;51.516;6.742;2022-08-19T07:16:05;42.67;;;24.70;;
31284;SDS011;56605;51.516;6.742;2022-08-19T07:18:32;42.42;;;24.55;;
31284;SDS011;56605;51.516;6.742;2022-08-19T07:23:29;43.05;;;27.75;;
31284;SDS011;56605;51.516;6.742;2022-08-19T07:25:54;43.00;;;26.70;;
31284;SDS011;56605;51.516;6.742;2022-08-19T07:28:20;43.92;;;27.77;;
31284;SDS011;56605;51.516;6.742;2022-08-19T07:30:45;44.83;;;28.95;;
31284;SDS011;56605;51.516;6.742;2022-08-19T07:33:10;42.20;;;28.40;;
31284;SDS011;56605;51.516;6.742;2022-08-19T07:35:36;42.45;;;27.08;;
31284;SDS011;56605;51.516;6.742;2022-08-19T07:38:01;41.38;;;24.48;;
31284;SDS011;56605;51.516;6.742;2022-08-19T07:40:28;36.80;;;24.45;;
31284;SDS011;56605;51.516;6.742;2022-08-19T07:42:53;40.35;;;25.02;;
31284;SDS011;56605;51.516;6.742;2022-08-19T07:45:19;39.35;;;23.10;;
31284;SDS011;56605;51.516;6.742;2022-08-19T07:47:44;37.80;;;22.55;;
31284;SDS011;56605;51.516;6.742;2022-08-19T07:50:11;37.60;;;23.00;;
31284;SDS011;56605;51.516;6.742;2022-08-19T07:52:37;31.52;;;21.65;;
31284;SDS011;56605;51.516;6.742;2022-08-19T07:55:04;33.58;;;23.83;;
31284;SDS011;56605;51.516;6.742;2022-08-19T07:57:31;36.05;;;21.83;;
31284;SDS011;56605;51.516;6.742;2022-08-19T07:59:56;35.03;;;21.13;;
31284;SDS011;56605;51.516;6.742;2022-08-19T08:02:22;30.58;;;20.48;;
31284;SDS011;56605;51.516;6.742;2022-08-19T08:04:47;33.08;;;19.95;;
31284;SDS011;56605;51.516;6.742;2022-08-19T08:07:31;30.05;;;19.67;;
31284;SDS011;56605;51.516;6.742;2022-08-19T08:10:15;36.65;;;20.67;;
31284;SDS011;56605;51.516;6.742;2022-08-19T08:12:40;30.42;;;18.40;;
31284;SDS011;56605;51.516;6.742;2022-08-19T08:15:08;28.77;;;18.92;;
31284;SDS011;56605;51.516;6.742;2022-08-19T08:17:36;29.02;;;18.48;;
31284;SDS011;56605;51.516;6.742;2022-08-19T08:20:05;30.98;;;17.52;;
31284;SDS011;56605;51.516;6.742;2022-08-19T08:22:32;28.08;;;18.05;;
31284;SDS011;56605;51.516;6.742;2022-08-19T08:25:18;25.40;;;14.00;;
31284;SDS011;56605;51.516;6.742;2022-08-19T08:27:47;24.25;;;14.68;;
31284;SDS011;56605;51.516;6.742;2022-08-19T08:30:18;24.60;;;14.48;;
31284;SDS011;56605;51.516;6.742;2022-08-19T08:32:47;22.83;;;13.85;;
31284;SDS011;56605;51.516;6.742;2022-08-19T08:35:14;23.65;;;15.32;;
31284;SDS011;56605;51.516;6.742;2022-08-19T08:37:42;20.40;;;13.68;;
31284;SDS011;56605;51.516;6.742;2022-08-19T08:43:07;26.38;;;15.93;;
31284;SDS011;56605;51.516;6.742;2022-08-19T08:46:00;32.10;;;17.73;;
31284;SDS011;56605;51.516;6.742;2022-08-19T08:51:09;33.38;;;18.08;;
31284;SDS011;56605;51.516;6.742;2022-08-19T08:53:39;25.17;;;16.48;;
31284;SDS011;56605;51.516;6.742;2022-08-19T08:56:08;35.35;;;15.43;;
31284;SDS011;56605;51.516;6.742;2022-08-19T08:58:58;22.90;;;13.57;;
31284;SDS011;56605;51.516;6.742;2022-08-19T09:01:28;21.20;;;14.00;;
31284;SDS011;56605;51.516;6.742;2022-08-19T09:03:54;23.17;;;14.00;;
31284;SDS011;56605;51.516;6.742;2022-08-19T09:06:29;35.75;;;17.40;;
31284;SDS011;56605;51.516;6.742;2022-08-19T09:09:17;25.77;;;13.45;;
31284;SDS011;56605;51.516;6.742;2022-08-19T09:14:48;24.73;;;16.17;;
31284;SDS011;56605;51.516;6.742;2022-08-19T09:17:18;20.98;;;12.90;;
31284;SDS011;56605;51.516;6.742;2022-08-19T09:19:50;21.80;;;14.10;;
31284;SDS011;56605;51.516;6.742;2022-08-19T09:22:20;21.58;;;14.68;;
31284;SDS011;56605;51.516;6.742;2022-08-19T09:24:47;23.50;;;14.73;;
31284;SDS011;56605;51.516;6.742;2022-08-19T09:27:17;34.45;;;17.38;;
31284;SDS011;56605;51.516;6.742;2022-08-19T09:29:43;23.88;;;15.52;;
31284;SDS011;56605;51.516;6.742;2022-08-19T09:32:09;21.98;;;14.82;;
31284;SDS011;56605;51.516;6.742;2022-08-19T09:34:34;22.63;;;14.90;;
31284;SDS011;56605;51.516;6.742;2022-08-19T09:37:00;20.67;;;13.30;;
31284;SDS011;56605;51.516;6.742;2022-08-19T09:39:25;22.13;;;14.85;;
31284;SDS011;56605;51.516;6.742;2022-08-19T09:41:51;28.20;;;16.33;;
31284;SDS011;56605;51.516;6.742;2022-08-19T09:44:17;23.83;;;15.63;;
31284;SDS011;56605;51.516;6.742;2022-08-19T09:46:45;25.63;;;16.08;;
31284;SDS011;56605;51.516;6.742;2022-08-19T09:49:12;25.63;;;15.57;;
31284;SDS011;56605;51.516;6.742;2022-08-19T09:51:37;22.75;;;16.70;;
31284;SDS011;56605;51.516;6.742;2022-08-19T09:54:03;24.80;;;16.25;;
31284;SDS011;56605;51.516;6.742;2022-08-19T09:56:29;28.73;;;16.63;;
31284;SDS011;56605;51.516;6.742;2022-08-19T09:58:57;24.33;;;14.73;;
31284;SDS011;56605;51.516;6.742;2022-08-19T10:01:26;26.40;;;15.15;;
31284;SDS011;56605;51.516;6.742;2022-08-19T10:03:54;26.17;;;14.88;;
31284;SDS011;56605;51.516;6.742;2022-08-19T10:06:21;24.70;;;16.00;;
31284;SDS011;56605;51.516;6.742;2022-08-19T10:08:48;24.00;;;15.00;;
31284;SDS011;56605;51.516;6.742;2022-08-19T10:11:14;23.48;;;15.35;;
31284;SDS011;56605;51.516;6.742;2022-08-19T10:13:42;23.50;;;15.10;;
31284;SDS011;56605;51.516;6.742;2022-08-19T10:16:09;24.40;;;15.73;;
31284;SDS011;56605;51.516;6.742;2022-08-19T10:18:37;21.27;;;13.90;;
31284;SDS011;56605;51.516;6.742;2022-08-19T10:21:04;22.92;;;15.15;;
31284;SDS011;56605;51.516;6.742;2022-08-19T10:23:36;23.83;;;15.88;;
31284;SDS011;56605;51.516;6.742;2022-08-19T10:26:06;26.23;;;15.30;;
31284;SDS011;56605;51.516;6.742;2022-08-19T10:28:35;23.27;;;14.45;;
31284;SDS011;56605;51.516;6.742;2022-08-19T10:31:14;24.25;;;14.45;;
31284;SDS011;56605;51.516;6.742;2022-08-19T10:33:42;20.17;;;13.40;;
31284;SDS011;56605;51.516;6.742;2022-08-19T10:36:12;23.00;;;13.85;;
31284;SDS011;56605;51.516;6.742;2022-08-19T10:38:40;23.98;;;15.30;;
31284;SDS011;56605;51.516;6.742;2022-08-19T10:41:16;23.15;;;15.18;;
31284;SDS011;56605;51.516;6.742;2022-08-19T10:43:43;28.77;;;17.80;;
31284;SDS011;56605;51.516;6.742;2022-08-19T10:46:11;23.08;;;16.38;;
31284;SDS011;56605;51.516;6.742;2022-08-19T10:48:38;24.02;;;16.40;;
31284;SDS011;56605;51.516;6.742;2022-08-19T10:51:04;26.30;;;17.30;;
31284;SDS011;56605;51.516;6.742;2022-08-19T10:53:49;30.50;;;17.30;;
31284;SDS011;56605;51.516;6.742;2022-08-19T10:56:14;26.52;;;14.43;;
31284;SDS011;56605;51.516;6.742;2022-08-19T10:58:59;22.08;;;14.77;;
31284;SDS011;56605;51.516;6.742;2022-08-19T11:01:25;33.72;;;17.00;;
31284;SDS011;56605;51.516;6.742;2022-08-19T11:03:52;22.42;;;13.80;;
31284;SDS011;56605;51.516;6.742;2022-08-19T11:06:17;23.40;;;15.02;;
31284;SDS011;56605;51.516;6.742;2022-08-19T11:08:44;20.17;;;13.43;;
31284;SDS011;56605;51.516;6.742;2022-08-19T11:11:10;18.90;;;11.88;;
31284;SDS011;56605;51.516;6.742;2022-08-19T11:13:37;21.23;;;12.65;;
31284;SDS011;56605;51.516;6.742;2022-08-19T11:16:12;16.25;;;11.57;;
31284;SDS011;56605;51.516;6.742;2022-08-19T11:18:41;16.58;;;9.73;;
31284;SDS011;56605;51.516;6.742;2022-08-19T11:21:10;11.02;;;8.30;;
31284;SDS011;56605;51.516;6.742;2022-08-19T11:23:44;11.10;;;7.60;;
31284;SDS011;56605;51.516;6.742;2022-08-19T11:26:14;13.15;;;8.48;;
31284;SDS011;56605;51.516;6.742;2022-08-19T11:28:40;13.30;;;8.85;;
31284;SDS011;56605;51.516;6.742;2022-08-19T11:31:10;15.00;;;9.60;;
31284;SDS011;56605;51.516;6.742;2022-08-19T11:33:37;13.32;;;8.32;;
31284;SDS011;56605;51.516;6.742;2022-08-19T11:36:02;14.85;;;9.05;;
31284;SDS011;56605;51.516;6.742;2022-08-19T11:38:28;10.70;;;7.88;;
31284;SDS011;56605;51.516;6.742;2022-08-19T11:41:04;12.23;;;8.45;;
31284;SDS011;56605;51.516;6.742;2022-08-19T11:43:32;12.82;;;8.10;;
31284;SDS011;56605;51.516;6.742;2022-08-19T11:45:58;10.68;;;7.50;;
31284;SDS011;56605;51.516;6.742;2022-08-19T11:48:24;11.32;;;7.65;;
31284;SDS011;56605;51.516;6.742;2022-08-19T11:50:51;11.55;;;7.25;;
31284;SDS011;56605;51.516;6.742;2022-08-19T11:53:20;11.98;;;7.20;;
31284;SDS011;56605;51.516;6.742;2022-08-19T11:55:46;6.07;;;5.38;;
31284;SDS011;56605;51.516;6.742;2022-08-19T11:58:12;9.15;;;6.32;;
31284;SDS011;56605;51.516;6.742;2022-08-19T12:00:40;7.03;;;5.85;;
31284;SDS011;56605;51.516;6.742;2022-08-19T12:03:06;9.70;;;6.80;;
31284;SDS011;56605;51.516;6.742;2022-08-19T12:05:32;10.63;;;7.68;;
31284;SDS011;56605;51.516;6.742;2022-08-19T12:07:58;8.02;;;5.90;;
31284;SDS011;56605;51.516;6.742;2022-08-19T12:10:23;8.82;;;6.43;;
31284;SDS011;56605;51.516;6.742;2022-08-19T12:12:49;6.78;;;5.20;;
31284;SDS011;56605;51.516;6.742;2022-08-19T12:15:14;8.10;;;5.88;;
31284;SDS011;56605;51.516;6.742;2022-08-19T12:17:40;10.88;;;6.25;;
31284;SDS011;56605;51.516;6.742;2022-08-19T12:20:08;9.73;;;5.97;;
31284;SDS011;56605;51.516;6.742;2022-08-19T12:22:38;7.00;;;5.32;;
31284;SDS011;56605;51.516;6.742;2022-08-19T12:25:06;8.85;;;5.07;;
31284;SDS011;56605;51.516;6.742;2022-08-19T12:27:32;6.10;;;4.72;;
31284;SDS011;56605;51.516;6.742;2022-08-19T12:29:58;6.60;;;4.40;;
31284;SDS011;56605;51.516;6.742;2022-08-19T12:32:26;5.80;;;4.63;;
31284;SDS011;56605;51.516;6.742;2022-08-19T12:34:51;6.72;;;5.40;;
31284;SDS011;56605;51.516;6.742;2022-08-19T12:37:17;6.50;;;4.10;;
31284;SDS011;56605;51.516;6.742;2022-08-19T12:39:43;5.18;;;4.07;;
31284;SDS011;56605;51.516;6.742;2022-08-19T12:42:09;8.13;;;4.22;;
31284;SDS011;56605;51.516;6.742;2022-08-19T12:44:36;4.10;;;3.35;;
31284;SDS011;56605;51.516;6.742;2022-08-19T12:47:04;6.60;;;4.53;;
31284;SDS011;56605;51.516;6.742;2022-08-19T12:49:30;5.30;;;4.80;;
31284;SDS011;56605;51.516;6.742;2022-08-19T12:51:58;5.05;;;4.20;;
31284;SDS011;56605;51.516;6.742;2022-08-19T12:54:25;5.97;;;5.40;;
31284;SDS011;56605;51.516;6.742;2022-08-19T12:56:51;6.80;;;4.95;;
31284;SDS011;56605;51.516;6.742;2022-08-19T12:59:16;8.57;;;4.78;;
31284;SDS011;56605;51.516;6.742;2022-08-19T13:01:43;5.78;;;4.80;;
31284;SDS011;56605;51.516;6.742;2022-08-19T13:04:09;8.13;;;5.38;;
31284;SDS011;56605;51.516;6.742;2022-08-19T13:06:35;5.93;;;4.40;;
31284;SDS011;56605;51.516;6.742;2022-08-19T13:09:01;4.40;;;3.53;;
31284;SDS011;56605;51.516;6.742;2022-08-19T13:11:26;6.28;;;4.32;;
31284;SDS011;56605;51.516;6.742;2022-08-19T13:13:57;4.40;;;3.95;;
31284;SDS011;56605;51.516;6.742;2022-08-19T13:16:23;6.75;;;4.47;;
31284;SDS011;56605;51.516;6.742;2022-08-19T13:18:49;7.55;;;5.20;;
31284;SDS011;56605;51.516;6.742;2022-08-19T13:21:23;6.30;;;4.95;;
31284;SDS011;56605;51.516;6.742;2022-08-19T13:23:52;6.63;;;5.65;;
31284;SDS011;56605;51.516;6.742;2022-08-19T13:26:18;4.80;;;4.32;;
31284;SDS011;56605;51.516;6.742;2022-08-19T13:28:45;7.25;;;4.80;;
31284;SDS011;56605;51.516;6.742;2022-08-19T13:31:30;7.85;;;5.53;;
31284;SDS011;56605;51.516;6.742;2022-08-19T13:34:16;9.30;;;5.88;;
31284;SDS011;56605;51.516;6.742;2022-08-19T13:36:44;7.13;;;5.95;;
31284;SDS011;56605;51.516;6.742;2022-08-19T13:39:11;11.05;;;7.03;;
31284;SDS011;56605;51.516;6.742;2022-08-19T13:41:37;8.63;;;6.30;;
31284;SDS011;56605;51.516;6.742;2022-08-19T13:44:12;9.25;;;6.38;;
31284;SDS011;56605;51.516;6.742;2022-08-19T13:46:38;6.85;;;5.97;;
31284;SDS011;56605;51.516;6.742;2022-08-19T13:49:04;10.40;;;6.57;;
31284;SDS011;56605;51.516;6.742;2022-08-19T13:51:29;5.93;;;5.38;;
31284;SDS011;56605;51.516;6.742;2022-08-19T13:53:54;8.18;;;6.35;;
31284;SDS011;56605;51.516;6.742;2022-08-19T13:56:20;8.85;;;6.85;;
31284;SDS011;56605;51.516;6.742;2022-08-19T13:58:45;12.15;;;8.50;;
31284;SDS011;56605;51.516;6.742;2022-08-19T14:01:11;11.02;;;7.78;;
31284;SDS011;56605;51.516;6.742;2022-08-19T14:03:37;11.43;;;8.90;;
31284;SDS011;56605;51.516;6.742;2022-08-19T14:06:02;16.05;;;7.93;;
31284;SDS011;56605;51.516;6.742;2022-08-19T14:08:28;17.20;;;7.85;;
31284;SDS011;56605;51.516;6.742;2022-08-19T14:10:57;11.35;;;8.55;;
31284;SDS011;56605;51.516;6.742;2022-08-19T14:13:23;12.18;;;8.45;;
31284;SDS011;56605;51.516;6.742;2022-08-19T14:15:49;10.18;;;7.32;;
31284;SDS011;56605;51.516;6.742;2022-08-19T14:18:15;9.30;;;6.47;;
31284;SDS011;56605;51.516;6.742;2022-08-19T14:20:42;8.68;;;6.72;;
31284;SDS011;56605;51.516;6.742;2022-08-19T14:23:08;7.93;;;6.28;;
31284;SDS011;56605;51.516;6.742;2022-08-19T14:25:33;8.77;;;5.85;;
31284;SDS011;56605;51.516;6.742;2022-08-19T14:27:59;7.93;;;5.78;;
31284;SDS011;56605;51.516;6.742;2022-08-19T14:30:29;9.48;;;5.22;;
31284;SDS011;56605;51.516;6.742;2022-08-19T14:32:57;5.95;;;4.38;;
31284;SDS011;56605;51.516;6.742;2022-08-19T14:35:24;8.27;;;5.03;;
31284;SDS011;56605;51.516;6.742;2022-08-19T14:37:51;6.82;;;4.45;;
31284;SDS011;56605;51.516;6.742;2022-08-19T14:40:21;5.28;;;4.78;;
31284;SDS011;56605;51.516;6.742;2022-08-19T14:42:54;5.93;;;4.88;;
31284;SDS011;56605;51.516;6.742;2022-08-19T14:45:25;10.43;;;6.05;;
31284;SDS011;56605;51.516;6.742;2022-08-19T14:47:52;14.80;;;6.82;;
31284;SDS011;56605;51.516;6.742;2022-08-19T14:50:17;8.63;;;6.10;;